sensor_id;sensor_type;location;lat;lon;timestamp;pressure;altitude;pressure_sealevel;temperature;humidity
29197;BME280;62796;42.654;23.316;2023-02-01T00:01:25;94637.69;;;3.77;51.90
29197;BME280;62796;42.654;23.316;2023-02-01T00:03:51;94627.41;;;3.68;52.04
29197;BME280;62796;42.654;23.316;2023-02-01T00:06:16;94634.97;;;3.64;51.84
29197;BME280;62796;42.654;23.316;2023-02-01T00:08:41;94628.84;;;3.60;51.44
29197;BME280;62796;42.654;23.316;2023-02-01T00:11:09;94630.13;;;3.56;51.77
29197;BME280;62796;42.654;23.316;2023-02-01T00:13:37;94640.78;;;3.66;51.92
29197;BME280;62796;42.654;23.316;2023-02-01T00:16:30;94646.56;;;3.56;52.14
29197;BME280;62796;42.654;23.316;2023-02-01T00:19:02;94633.31;;;3.54;51.78
29197;BME280;62796;42.654;23.316;2023-02-01T00:21:28;94633.31;;;3.54;51.46
29197;BME280;62796;42.654;23.316;2023-02-01T00:23:53;94644.06;;;3.61;51.58
29197;BME280;62796;42.654;23.316;2023-02-01T00:26:31;94644.16;;;3.45;51.31
29197;BME280;62796;42.654;23.316;2023-02-01T00:28:57;94642.72;;;3.53;51.56
29197;BME280;62796;42.654;23.316;2023-02-01T00:31:22;94628.50;;;3.58;51.73
29197;BME280;62796;42.654;23.316;2023-02-01T00:33:48;94639.22;;;3.53;51.60
29197;BME280;62796;42.654;23.316;2023-02-01T00:36:14;94634.19;;;3.51;50.72
29197;BME280;62796;42.654;23.316;2023-02-01T00:38:40;94625.75;;;3.46;50.94
29197;BME280;62796;42.654;23.316;2023-02-01T00:41:17;94633.63;;;3.44;51.16
29197;BME280;62796;42.654;23.316;2023-02-01T00:43:43;94632.31;;;3.35;50.80
29197;BME280;62796;42.654;23.316;2023-02-01T00:46:10;94630.03;;;3.34;50.90
29197;BME280;62796;42.654;23.316;2023-02-01T00:48:36;94634.28;;;3.35;50.23
29197;BME280;62796;42.654;23.316;2023-02-01T00:51:04;94632.41;;;3.32;50.35
29197;BME280;62796;42.654;23.316;2023-02-01T00:53:30;94624.75;;;3.27;50.78
29197;BME280;62796;42.654;23.316;2023-02-01T00:55:56;94619.09;;;3.34;50.64
29197;BME280;62796;42.654;23.316;2023-02-01T00:58:21;94626.94;;;3.32;50.10
29197;BME280;62796;42.654;23.316;2023-02-01T01:00:49;94624.66;;;3.30;49.97
29197;BME280;62796;42.654;23.316;2023-02-01T01:03:15;94621.69;;;3.25;50.13
29197;BME280;62796;42.654;23.316;2023-02-01T01:05:47;94619.09;;;3.34;50.04
29197;BME280;62796;42.654;23.316;2023-02-01T01:08:14;94622.78;;;3.27;49.77
29197;BME280;62796;42.654;23.316;2023-02-01T01:10:40;94620.94;;;3.37;49.47
29197;BME280;62796;42.654;23.316;2023-02-01T01:13:06;94627.28;;;3.34;49.47
29197;BME280;62796;42.654;23.316;2023-02-01T01:15:36;94621.06;;;3.46;49.76
29197;BME280;62796;42.654;23.316;2023-02-01T01:18:02;94622.03;;;3.40;49.27
29197;BME280;62796;42.654;23.316;2023-02-01T01:20:28;94629.69;;;3.45;49.20
29197;BME280;62796;42.654;23.316;2023-02-01T01:22:54;94607.56;;;3.26;48.62
29197;BME280;62796;42.654;23.316;2023-02-01T01:25:19;94614.91;;;3.42;48.59
29197;BME280;62796;42.654;23.316;2023-02-01T01:27:45;94612.06;;;3.46;48.26
29197;BME280;62796;42.654;23.316;2023-02-01T01:30:10;94608.88;;;3.47;47.99
29197;BME280;62796;42.654;23.316;2023-02-01T01:32:36;94607.13;;;3.53;47.26
29197;BME280;62796;42.654;23.316;2023-02-01T01:35:01;94617.56;;;3.58;46.81
29197;BME280;62796;42.654;23.316;2023-02-01T01:37:26;94619.53;;;3.45;46.95
29197;BME280;62796;42.654;23.316;2023-02-01T01:39:52;94620.50;;;3.51;47.14
29197;BME280;62796;42.654;23.316;2023-02-01T01:42:17;94637.06;;;3.60;46.94
29197;BME280;62796;42.654;23.316;2023-02-01T01:45:05;94632.25;;;3.64;46.32
29197;BME280;62796;42.654;23.316;2023-02-01T01:47:41;94634.63;;;3.62;46.56
29197;BME280;62796;42.654;23.316;2023-02-01T01:50:10;94625.97;;;3.51;46.95
29197;BME280;62796;42.654;23.316;2023-02-01T01:52:39;94632.22;;;3.52;46.35
29197;BME280;62796;42.654;23.316;2023-02-01T01:55:06;94627.06;;;3.41;46.61
29197;BME280;62796;42.654;23.316;2023-02-01T01:57:35;94630.78;;;3.34;47.13
29197;BME280;62796;42.654;23.316;2023-02-01T02:00:14;94622.25;;;3.32;47.32
29197;BME280;62796;42.654;23.316;2023-02-01T02:02:43;94625.63;;;3.24;47.03
29197;BME280;62796;42.654;23.316;2023-02-01T02:05:10;94626.50;;;3.21;47.21
29197;BME280;62796;42.654;23.316;2023-02-01T02:07:39;94623.09;;;3.17;47.57
29197;BME280;62796;42.654;23.316;2023-02-01T02:10:08;94626.69;;;3.14;47.19
29197;BME280;62796;42.654;23.316;2023-02-01T02:12:38;94623.50;;;3.03;48.17
29197;BME280;62796;42.654;23.316;2023-02-01T02:15:04;94617.50;;;3.08;47.61
29197;BME280;62796;42.654;23.316;2023-02-01T02:17:54;94623.81;;;3.05;47.37
29197;BME280;62796;42.654;23.316;2023-02-01T02:25:52;94611.63;;;3.22;47.34
29197;BME280;62796;42.654;23.316;2023-02-01T02:40:48;94615.56;;;2.22;49.05
29197;BME280;62796;42.654;23.316;2023-02-01T02:43:22;94612.66;;;2.29;49.24
29197;BME280;62796;42.654;23.316;2023-02-01T02:46:36;94602.56;;;2.26;48.85
29197;BME280;62796;42.654;23.316;2023-02-01T02:49:34;94609.22;;;2.41;48.48
29197;BME280;62796;42.654;23.316;2023-02-01T02:52:20;94598.94;;;2.45;48.62
29197;BME280;62796;42.654;23.316;2023-02-01T02:55:16;94606.41;;;2.29;48.81
29197;BME280;62796;42.654;23.316;2023-02-01T02:57:43;94600.56;;;2.43;48.60
29197;BME280;62796;42.654;23.316;2023-02-01T03:00:31;94609.50;;;2.59;47.68
29197;BME280;62796;42.654;23.316;2023-02-01T03:03:16;94608.50;;;2.66;47.32
29197;BME280;62796;42.654;23.316;2023-02-01T03:06:00;94597.78;;;2.30;48.21
29197;BME280;62796;42.654;23.316;2023-02-01T03:08:27;94611.72;;;2.48;47.43
29197;BME280;62796;42.654;23.316;2023-02-01T03:13:31;94621.47;;;2.49;47.14
29197;BME280;62796;42.654;23.316;2023-02-01T03:18:59;94632.72;;;2.67;47.15
29197;BME280;62796;42.654;23.316;2023-02-01T03:21:59;94636.84;;;2.59;47.70
29197;BME280;62796;42.654;23.316;2023-02-01T03:24:26;94633.34;;;2.59;47.66
29197;BME280;62796;42.654;23.316;2023-02-01T03:27:10;94638.84;;;2.71;47.73
29197;BME280;62796;42.654;23.316;2023-02-01T03:29:44;94637.50;;;2.63;47.73
29197;BME280;62796;42.654;23.316;2023-02-01T03:32:10;94636.88;;;2.72;47.90
29197;BME280;62796;42.654;23.316;2023-02-01T03:34:36;94639.50;;;2.75;47.75
29197;BME280;62796;42.654;23.316;2023-02-01T03:37:05;94638.19;;;2.67;47.90
29197;BME280;62796;42.654;23.316;2023-02-01T03:39:52;94643.88;;;2.73;47.64
29197;BME280;62796;42.654;23.316;2023-02-01T03:42:30;94635.06;;;2.53;47.99
29197;BME280;62796;42.654;23.316;2023-02-01T03:45:19;94627.28;;;2.51;48.18
29197;BME280;62796;42.654;23.316;2023-02-01T03:47:48;94624.94;;;2.37;48.45
29197;BME280;62796;42.654;23.316;2023-02-01T03:50:17;94618.34;;;2.51;48.46
29197;BME280;62796;42.654;23.316;2023-02-01T03:52:48;94630.28;;;2.57;48.47
29197;BME280;62796;42.654;23.316;2023-02-01T03:55:20;94635.78;;;2.69;47.71
29197;BME280;62796;42.654;23.316;2023-02-01T03:57:52;94633.94;;;2.79;47.94
29197;BME280;62796;42.654;23.316;2023-02-01T04:00:21;94623.69;;;2.83;47.49
29197;BME280;62796;42.654;23.316;2023-02-01T04:02:47;94639.13;;;2.90;47.57
29197;BME280;62796;42.654;23.316;2023-02-01T04:05:13;94629.72;;;2.91;47.27
29197;BME280;62796;42.654;23.316;2023-02-01T04:07:38;94631.81;;;2.87;47.10
29197;BME280;62796;42.654;23.316;2023-02-01T04:10:04;94632.31;;;2.82;47.58
29197;BME280;62796;42.654;23.316;2023-02-01T04:12:29;94635.53;;;2.93;47.96
29197;BME280;62796;42.654;23.316;2023-02-01T04:14:55;94634.09;;;2.59;48.75
29197;BME280;62796;42.654;23.316;2023-02-01T04:17:20;94627.47;;;2.73;48.75
29197;BME280;62796;42.654;23.316;2023-02-01T04:19:46;94634.72;;;2.79;48.74
29197;BME280;62796;42.654;23.316;2023-02-01T04:22:11;94637.13;;;2.77;48.87
29197;BME280;62796;42.654;23.316;2023-02-01T04:24:37;94630.31;;;2.69;49.21
29197;BME280;62796;42.654;23.316;2023-02-01T04:27:03;94639.03;;;2.64;49.60
29197;BME280;62796;42.654;23.316;2023-02-01T04:29:28;94644.13;;;2.78;49.49
29197;BME280;62796;42.654;23.316;2023-02-01T04:31:54;94644.78;;;2.83;49.94
29197;BME280;62796;42.654;23.316;2023-02-01T04:34:19;94650.81;;;2.90;49.88
29197;BME280;62796;42.654;23.316;2023-02-01T04:36:45;94623.78;;;2.79;49.61
29197;BME280;62796;42.654;23.316;2023-02-01T04:39:10;94645.16;;;2.97;50.10
29197;BME280;62796;42.654;23.316;2023-02-01T04:41:35;94633.66;;;2.90;50.28
29197;BME280;62796;42.654;23.316;2023-02-01T04:44:01;94641.88;;;2.90;50.42
29197;BME280;62796;42.654;23.316;2023-02-01T04:46:26;94646.72;;;2.98;50.12
29197;BME280;62796;42.654;23.316;2023-02-01T04:48:52;94641.97;;;2.99;50.47
29197;BME280;62796;42.654;23.316;2023-02-01T04:51:17;94647.06;;;3.13;50.31
29197;BME280;62796;42.654;23.316;2023-02-01T04:53:44;94642.13;;;3.08;50.23
29197;BME280;62796;42.654;23.316;2023-02-01T04:56:09;94653.53;;;3.19;50.40
29197;BME280;62796;42.654;23.316;2023-02-01T04:58:35;94650.72;;;3.22;50.15
29197;BME280;62796;42.654;23.316;2023-02-01T05:01:04;94660.22;;;3.18;50.68
29197;BME280;62796;42.654;23.316;2023-02-01T05:03:30;94656.78;;;3.14;50.94
29197;BME280;62796;42.654;23.316;2023-02-01T05:05:56;94670.88;;;3.28;50.68
29197;BME280;62796;42.654;23.316;2023-02-01T05:08:21;94667.13;;;3.35;50.49
29197;BME280;62796;42.654;23.316;2023-02-01T05:10:48;94678.09;;;3.35;50.40
29197;BME280;62796;42.654;23.316;2023-02-01T05:13:13;94667.59;;;3.05;50.83
29197;BME280;62796;42.654;23.316;2023-02-01T05:15:57;94681.91;;;3.25;51.04
29197;BME280;62796;42.654;23.316;2023-02-01T05:18:22;94685.53;;;3.34;50.90
29197;BME280;62796;42.654;23.316;2023-02-01T05:20:47;94685.44;;;3.38;50.95
29197;BME280;62796;42.654;23.316;2023-02-01T05:23:13;94684.78;;;3.34;50.88
29197;BME280;62796;42.654;23.316;2023-02-01T05:25:38;94673.97;;;3.43;50.62
29197;BME280;62796;42.654;23.316;2023-02-01T05:28:04;94675.81;;;3.46;50.57
29197;BME280;62796;42.654;23.316;2023-02-01T05:30:29;94673.59;;;3.41;50.74
29197;BME280;62796;42.654;23.316;2023-02-01T05:32:55;94675.81;;;3.46;51.10
29197;BME280;62796;42.654;23.316;2023-02-01T05:35:20;94671.09;;;3.47;50.82
29197;BME280;62796;42.654;23.316;2023-02-01T05:37:45;94672.41;;;3.42;50.76
29197;BME280;62796;42.654;23.316;2023-02-01T05:40:11;94681.16;;;3.50;50.78
29197;BME280;62796;42.654;23.316;2023-02-01T05:42:37;94676.47;;;3.50;51.05
29197;BME280;62796;42.654;23.316;2023-02-01T05:45:03;94673.41;;;3.48;50.21
29197;BME280;62796;42.654;23.316;2023-02-01T05:47:30;94666.84;;;3.58;50.37
29197;BME280;62796;42.654;23.316;2023-02-01T05:49:56;94669.78;;;3.39;50.29
29197;BME280;62796;42.654;23.316;2023-02-01T05:52:21;94667.47;;;3.37;50.18
29197;BME280;62796;42.654;23.316;2023-02-01T05:54:46;94664.41;;;3.35;50.20
29197;BME280;62796;42.654;23.316;2023-02-01T05:57:12;94674.38;;;3.42;50.08
29197;BME280;62796;42.654;23.316;2023-02-01T05:59:38;94667.25;;;3.44;50.46
29197;BME280;62796;42.654;23.316;2023-02-01T06:02:07;94670.25;;;3.62;49.49
29197;BME280;62796;42.654;23.316;2023-02-01T06:04:33;94665.72;;;3.56;49.21
29197;BME280;62796;42.654;23.316;2023-02-01T06:06:59;94671.00;;;3.50;49.48
29197;BME280;62796;42.654;23.316;2023-02-01T06:09:24;94681.53;;;3.64;49.12
29197;BME280;62796;42.654;23.316;2023-02-01T06:11:49;94683.56;;;3.35;50.08
29197;BME280;62796;42.654;23.316;2023-02-01T06:14:15;94686.91;;;3.55;49.48
29197;BME280;62796;42.654;23.316;2023-02-01T06:16:40;94673.75;;;3.63;49.18
29197;BME280;62796;42.654;23.316;2023-02-01T06:19:06;94678.88;;;3.73;48.33
29197;BME280;62796;42.654;23.316;2023-02-01T06:21:31;94680.75;;;3.76;48.26
29197;BME280;62796;42.654;23.316;2023-02-01T06:23:58;94687.78;;;3.90;48.27
29197;BME280;62796;42.654;23.316;2023-02-01T06:26:24;94688.34;;;3.85;47.83
29197;BME280;62796;42.654;23.316;2023-02-01T06:28:49;94693.81;;;3.98;47.61
29197;BME280;62796;42.654;23.316;2023-02-01T06:31:15;94697.66;;;4.00;47.58
29197;BME280;62796;42.654;23.316;2023-02-01T06:33:40;94696.66;;;4.07;47.23
29197;BME280;62796;42.654;23.316;2023-02-01T06:36:09;94695.78;;;4.10;47.00
29197;BME280;62796;42.654;23.316;2023-02-01T06:38:35;94693.72;;;3.76;47.76
29197;BME280;62796;42.654;23.316;2023-02-01T06:41:00;94696.44;;;3.88;47.58
29197;BME280;62796;42.654;23.316;2023-02-01T06:43:27;94702.38;;;3.87;47.00
29197;BME280;62796;42.654;23.316;2023-02-01T06:45:58;94706.09;;;4.06;47.27
29197;BME280;62796;42.654;23.316;2023-02-01T06:48:24;94707.06;;;3.74;47.64
29197;BME280;62796;42.654;23.316;2023-02-01T06:50:49;94706.06;;;3.80;47.80
29197;BME280;62796;42.654;23.316;2023-02-01T06:53:15;94716.72;;;4.04;46.75
29197;BME280;62796;42.654;23.316;2023-02-01T06:55:40;94708.28;;;4.11;46.81
29197;BME280;62796;42.654;23.316;2023-02-01T06:58:05;94710.13;;;4.14;46.40
29197;BME280;62796;42.654;23.316;2023-02-01T07:00:31;94730.63;;;4.22;46.35
29197;BME280;62796;42.654;23.316;2023-02-01T07:02:57;94731.28;;;4.26;46.28
29197;BME280;62796;42.654;23.316;2023-02-01T07:05:23;94727.56;;;4.20;45.86
29197;BME280;62796;42.654;23.316;2023-02-01T07:07:49;94736.56;;;4.33;45.80
29197;BME280;62796;42.654;23.316;2023-02-01T07:10:14;94727.34;;;4.27;45.87
29197;BME280;62796;42.654;23.316;2023-02-01T07:12:40;94738.19;;;4.30;45.78
29197;BME280;62796;42.654;23.316;2023-02-01T07:15:06;94742.25;;;4.26;46.08
29197;BME280;62796;42.654;23.316;2023-02-01T07:17:31;94741.50;;;4.25;46.02
29197;BME280;62796;42.654;23.316;2023-02-01T07:19:57;94749.59;;;4.29;46.35
29197;BME280;62796;42.654;23.316;2023-02-01T07:22:25;94751.81;;;4.09;46.57
29197;BME280;62796;42.654;23.316;2023-02-01T07:24:50;94756.19;;;4.19;46.65
29197;BME280;62796;42.654;23.316;2023-02-01T07:27:15;94751.03;;;4.21;46.08
29197;BME280;62796;42.654;23.316;2023-02-01T07:29:41;94765.28;;;4.16;46.22
29197;BME280;62796;42.654;23.316;2023-02-01T07:32:06;94749.94;;;4.06;46.90
29197;BME280;62796;42.654;23.316;2023-02-01T07:34:32;94757.72;;;4.20;46.32
29197;BME280;62796;42.654;23.316;2023-02-01T07:36:58;94761.66;;;4.31;45.80
29197;BME280;62796;42.654;23.316;2023-02-01T07:39:23;94753.53;;;4.40;45.91
29197;BME280;62796;42.654;23.316;2023-02-01T07:41:48;94759.91;;;4.50;45.29
29197;BME280;62796;42.654;23.316;2023-02-01T07:44:14;94757.38;;;4.43;45.19
29197;BME280;62796;42.654;23.316;2023-02-01T07:46:39;94772.75;;;4.53;45.31
29197;BME280;62796;42.654;23.316;2023-02-01T07:49:08;94762.19;;;4.52;44.86
29197;BME280;62796;42.654;23.316;2023-02-01T07:51:33;94774.81;;;4.62;44.64
29197;BME280;62796;42.654;23.316;2023-02-01T07:53:59;94770.97;;;4.72;44.71
29197;BME280;62796;42.654;23.316;2023-02-01T07:56:24;94778.84;;;4.82;44.49
29197;BME280;62796;42.654;23.316;2023-02-01T07:58:51;94788.34;;;4.90;44.30
29197;BME280;62796;42.654;23.316;2023-02-01T08:01:23;94781.88;;;4.84;43.81
29197;BME280;62796;42.654;23.316;2023-02-01T08:03:52;94784.22;;;4.86;43.66
29197;BME280;62796;42.654;23.316;2023-02-01T08:06:18;94773.75;;;4.93;43.68
29197;BME280;62796;42.654;23.316;2023-02-01T08:08:45;94782.97;;;4.99;43.29
29197;BME280;62796;42.654;23.316;2023-02-01T08:11:12;94781.84;;;5.10;43.38
29197;BME280;62796;42.654;23.316;2023-02-01T08:13:38;94782.53;;;5.23;43.04
29197;BME280;62796;42.654;23.316;2023-02-01T08:16:06;94782.44;;;5.26;42.66
29197;BME280;62796;42.654;23.316;2023-02-01T08:18:33;94777.63;;;5.18;42.89
29197;BME280;62796;42.654;23.316;2023-02-01T08:21:25;94778.44;;;5.06;43.07
29197;BME280;62796;42.654;23.316;2023-02-01T08:23:51;94769.19;;;5.12;42.90
29197;BME280;62796;42.654;23.316;2023-02-01T08:26:22;94779.81;;;5.23;42.74
29197;BME280;62796;42.654;23.316;2023-02-01T08:28:54;94782.13;;;5.24;42.96
29197;BME280;62796;42.654;23.316;2023-02-01T08:31:22;94783.13;;;5.18;42.69
29197;BME280;62796;42.654;23.316;2023-02-01T08:33:53;94780.69;;;5.20;43.07
29197;BME280;62796;42.654;23.316;2023-02-01T08:36:19;94787.03;;;5.29;43.01
29197;BME280;62796;42.654;23.316;2023-02-01T08:38:45;94779.44;;;5.33;42.77
29197;BME280;62796;42.654;23.316;2023-02-01T08:41:14;94781.84;;;5.10;42.50
29197;BME280;62796;42.654;23.316;2023-02-01T08:43:40;94779.59;;;4.95;43.78
29197;BME280;62796;42.654;23.316;2023-02-01T08:46:07;94777.88;;;4.64;44.23
29197;BME280;62796;42.654;23.316;2023-02-01T08:48:33;94772.09;;;4.96;43.53
29197;BME280;62796;42.654;23.316;2023-02-01T08:51:07;94772.41;;;5.11;43.38
29197;BME280;62796;42.654;23.316;2023-02-01T08:53:33;94767.03;;;5.29;43.12
29197;BME280;62796;42.654;23.316;2023-02-01T08:55:59;94780.47;;;5.48;42.44
29197;BME280;62796;42.654;23.316;2023-02-01T08:58:25;94773.09;;;5.58;41.45
29197;BME280;62796;42.654;23.316;2023-02-01T09:00:51;94769.38;;;5.52;41.42
29197;BME280;62796;42.654;23.316;2023-02-01T09:03:17;94768.19;;;5.19;42.41
29197;BME280;62796;42.654;23.316;2023-02-01T09:05:43;94777.44;;;5.46;41.83
29197;BME280;62796;42.654;23.316;2023-02-01T09:08:08;94780.34;;;5.74;41.88
29197;BME280;62796;42.654;23.316;2023-02-01T09:10:36;94782.16;;;5.89;41.58
29197;BME280;62796;42.654;23.316;2023-02-01T09:13:01;94785.91;;;6.04;41.23
29197;BME280;62796;42.654;23.316;2023-02-01T09:15:28;94785.69;;;6.21;40.92
29197;BME280;62796;42.654;23.316;2023-02-01T09:17:53;94770.78;;;6.40;40.38
29197;BME280;62796;42.654;23.316;2023-02-01T09:20:19;94776.84;;;6.26;40.34
29197;BME280;62796;42.654;23.316;2023-02-01T09:22:49;94785.78;;;6.39;40.41
29197;BME280;62796;42.654;23.316;2023-02-01T09:25:14;94780.63;;;6.50;40.21
29197;BME280;62796;42.654;23.316;2023-02-01T09:27:40;94789.88;;;6.34;40.10
29197;BME280;62796;42.654;23.316;2023-02-01T09:30:06;94786.94;;;6.29;40.55
29197;BME280;62796;42.654;23.316;2023-02-01T09:32:31;94789.38;;;6.66;40.09
29197;BME280;62796;42.654;23.316;2023-02-01T09:34:57;94771.25;;;6.87;39.44
29197;BME280;62796;42.654;23.316;2023-02-01T09:37:22;94775.75;;;6.54;39.69
29197;BME280;62796;42.654;23.316;2023-02-01T09:39:47;94767.94;;;6.52;39.62
29197;BME280;62796;42.654;23.316;2023-02-01T09:42:24;94776.97;;;6.22;39.70
29197;BME280;62796;42.654;23.316;2023-02-01T09:45:13;94756.88;;;6.03;40.17
29197;BME280;62796;42.654;23.316;2023-02-01T09:47:55;94761.41;;;6.59;40.06
29197;BME280;62796;42.654;23.316;2023-02-01T09:50:30;94751.19;;;6.29;39.67
29197;BME280;62796;42.654;23.316;2023-02-01T09:53:01;94760.19;;;6.69;39.48
29197;BME280;62796;42.654;23.316;2023-02-01T09:58:15;94739.25;;;6.62;39.22
29197;BME280;62796;42.654;23.316;2023-02-01T10:00:50;94734.91;;;7.29;37.77
29197;BME280;62796;42.654;23.316;2023-02-01T10:03:16;94721.06;;;7.56;36.91
29197;BME280;62796;42.654;23.316;2023-02-01T10:08:30;94740.00;;;7.99;36.22
29197;BME280;62796;42.654;23.316;2023-02-01T10:11:30;94734.47;;;8.08;35.93
29197;BME280;62796;42.654;23.316;2023-02-01T10:14:53;94731.81;;;8.65;34.47
29197;BME280;62796;42.654;23.316;2023-02-01T10:20:13;94712.19;;;9.49;32.70
29197;BME280;62796;42.654;23.316;2023-02-01T10:22:46;94717.75;;;9.78;32.33
29197;BME280;62796;42.654;23.316;2023-02-01T10:25:19;94698.97;;;9.82;32.23
29197;BME280;62796;42.654;23.316;2023-02-01T10:27:46;94706.13;;;10.32;31.56
29197;BME280;62796;42.654;23.316;2023-02-01T10:32:39;94687.06;;;9.90;32.20
29197;BME280;62796;42.654;23.316;2023-02-01T10:35:22;94686.69;;;10.62;30.49
29197;BME280;62796;42.654;23.316;2023-02-01T10:37:49;94684.38;;;11.15;30.01
29197;BME280;62796;42.654;23.316;2023-02-01T10:40:23;94688.47;;;11.65;28.79
29197;BME280;62796;42.654;23.316;2023-02-01T10:42:52;94681.13;;;10.62;30.19
29197;BME280;62796;42.654;23.316;2023-02-01T10:45:20;94680.88;;;11.20;29.72
29197;BME280;62796;42.654;23.316;2023-02-01T10:47:48;94680.06;;;10.94;28.91
29197;BME280;62796;42.654;23.316;2023-02-01T10:50:33;94675.03;;;10.57;29.58
29197;BME280;62796;42.654;23.316;2023-02-01T10:53:10;94685.34;;;9.11;32.13
29197;BME280;62796;42.654;23.316;2023-02-01T10:55:50;94685.53;;;8.83;33.10
29197;BME280;62796;42.654;23.316;2023-02-01T11:00:54;94693.44;;;8.90;32.86
29197;BME280;62796;42.654;23.316;2023-02-01T11:06:00;94686.09;;;8.64;34.15
29197;BME280;62796;42.654;23.316;2023-02-01T11:08:26;94680.44;;;9.44;32.38
29197;BME280;62796;42.654;23.316;2023-02-01T11:11:02;94655.25;;;9.42;32.75
29197;BME280;62796;42.654;23.316;2023-02-01T11:13:32;94664.59;;;10.32;31.05
29197;BME280;62796;42.654;23.316;2023-02-01T11:16:02;94671.41;;;11.06;29.99
29197;BME280;62796;42.654;23.316;2023-02-01T11:18:32;94653.53;;;11.28;28.96
29197;BME280;62796;42.654;23.316;2023-02-01T11:21:00;94666.50;;;10.96;30.47
29197;BME280;62796;42.654;23.316;2023-02-01T11:23:27;94659.75;;;11.68;28.50
29197;BME280;62796;42.654;23.316;2023-02-01T11:25:56;94663.94;;;12.10;27.64
29197;BME280;62796;42.654;23.316;2023-02-01T11:28:31;94654.66;;;11.61;28.35
29197;BME280;62796;42.654;23.316;2023-02-01T11:31:00;94649.88;;;10.96;29.87
29197;BME280;62796;42.654;23.316;2023-02-01T11:33:31;94640.03;;;10.95;29.38
29197;BME280;62796;42.654;23.316;2023-02-01T11:36:12;94631.25;;;11.42;28.58
29197;BME280;62796;42.654;23.316;2023-02-01T11:38:54;94654.28;;;11.74;28.37
29197;BME280;62796;42.654;23.316;2023-02-01T11:41:26;94649.53;;;12.06;28.27
29197;BME280;62796;42.654;23.316;2023-02-01T11:43:57;94645.59;;;12.18;27.19
29197;BME280;62796;42.654;23.316;2023-02-01T11:46:32;94657.84;;;12.37;27.18
29197;BME280;62796;42.654;23.316;2023-02-01T11:49:19;94641.91;;;12.74;26.83
29197;BME280;62796;42.654;23.316;2023-02-01T11:52:12;94631.53;;;11.24;28.52
29197;BME280;62796;42.654;23.316;2023-02-01T12:05:53;94621.28;;;12.13;28.05
29197;BME280;62796;42.654;23.316;2023-02-01T12:08:39;94624.88;;;12.19;27.42
29197;BME280;62796;42.654;23.316;2023-02-01T12:11:22;94622.75;;;12.03;27.81
29197;BME280;62796;42.654;23.316;2023-02-01T12:13:57;94618.13;;;10.97;29.24
29197;BME280;62796;42.654;23.316;2023-02-01T12:24:48;94608.00;;;11.65;28.02
29197;BME280;62796;42.654;23.316;2023-02-01T12:30:10;94620.53;;;12.49;27.36
29197;BME280;62796;42.654;23.316;2023-02-01T12:35:53;94630.00;;;13.16;26.61
29197;BME280;62796;42.654;23.316;2023-02-01T12:38:57;94628.94;;;14.01;25.25
29197;BME280;62796;42.654;23.316;2023-02-01T12:42:13;94615.50;;;14.16;24.62
29197;BME280;62796;42.654;23.316;2023-02-01T12:44:43;94614.22;;;14.61;23.51
29197;BME280;62796;42.654;23.316;2023-02-01T12:47:35;94620.56;;;14.56;24.02
29197;BME280;62796;42.654;23.316;2023-02-01T12:50:35;94625.88;;;13.93;24.55
29197;BME280;62796;42.654;23.316;2023-02-01T12:53:08;94624.38;;;14.03;24.51
29197;BME280;62796;42.654;23.316;2023-02-01T12:55:38;94625.63;;;14.52;23.82
29197;BME280;62796;42.654;23.316;2023-02-01T12:58:13;94614.06;;;15.06;22.88
29197;BME280;62796;42.654;23.316;2023-02-01T13:00:52;94615.25;;;14.42;23.88
29197;BME280;62796;42.654;23.316;2023-02-01T13:03:41;94605.38;;;14.18;23.87
29197;BME280;62796;42.654;23.316;2023-02-01T13:09:01;94601.56;;;15.29;23.03
29197;BME280;62796;42.654;23.316;2023-02-01T13:11:34;94610.44;;;15.79;22.00
29197;BME280;62796;42.654;23.316;2023-02-01T13:16:37;94604.78;;;15.44;22.72
29197;BME280;62796;42.654;23.316;2023-02-01T13:19:40;94602.25;;;15.46;22.00
29197;BME280;62796;42.654;23.316;2023-02-01T13:22:11;94601.53;;;16.16;21.57
29197;BME280;62796;42.654;23.316;2023-02-01T13:25:03;94601.94;;;16.26;21.22
29197;BME280;62796;42.654;23.316;2023-02-01T13:27:37;94619.88;;;16.41;20.81
29197;BME280;62796;42.654;23.316;2023-02-01T13:30:22;94612.56;;;16.03;21.18
29197;BME280;62796;42.654;23.316;2023-02-01T13:41:21;94613.94;;;13.54;23.38
29197;BME280;62796;42.654;23.316;2023-02-01T13:43:54;94614.88;;;13.23;24.09
29197;BME280;62796;42.654;23.316;2023-02-01T13:46:21;94614.72;;;12.90;24.51
29197;BME280;62796;42.654;23.316;2023-02-01T13:48:56;94608.25;;;12.67;24.67
29197;BME280;62796;42.654;23.316;2023-02-01T13:51:44;94612.81;;;12.28;25.24
29197;BME280;62796;42.654;23.316;2023-02-01T13:56:48;94607.28;;;13.29;24.57
29197;BME280;62796;42.654;23.316;2023-02-01T14:05:54;94619.25;;;12.45;25.65
29197;BME280;62796;42.654;23.316;2023-02-01T14:10:57;94619.81;;;11.86;26.93
29197;BME280;62796;42.654;23.316;2023-02-01T14:13:40;94594.25;;;11.25;27.67
29197;BME280;62796;42.654;23.316;2023-02-01T14:16:15;94605.09;;;11.03;28.47
29197;BME280;62796;42.654;23.316;2023-02-01T14:21:33;94597.22;;;10.55;29.34
29197;BME280;62796;42.654;23.316;2023-02-01T14:26:49;94589.28;;;9.79;30.61
29197;BME280;62796;42.654;23.316;2023-02-01T14:36:51;94590.06;;;9.79;30.66
29197;BME280;62796;42.654;23.316;2023-02-01T14:50:46;94607.84;;;8.67;33.12
29197;BME280;62796;42.654;23.316;2023-02-01T15:01:20;94626.78;;;8.36;34.15
29197;BME280;62796;42.654;23.316;2023-02-01T15:04:04;94617.84;;;8.08;34.97
29197;BME280;62796;42.654;23.316;2023-02-01T15:06:36;94612.72;;;8.15;34.69
29197;BME280;62796;42.654;23.316;2023-02-01T15:11:53;94616.78;;;8.05;34.94
29197;BME280;62796;42.654;23.316;2023-02-01T15:14:18;94616.19;;;8.01;35.23
29197;BME280;62796;42.654;23.316;2023-02-01T15:16:43;94612.84;;;7.97;35.04
29197;BME280;62796;42.654;23.316;2023-02-01T15:19:15;94609.81;;;7.86;35.03
29197;BME280;62796;42.654;23.316;2023-02-01T15:21:47;94600.59;;;7.89;34.82